Time,TemperatureF,DewpointF,PressureIn,WindDirection,WindDirectionDegrees,WindSpeedMPH,WindSpeedGustMPH,Humidity,HourlyPrecipIn,Conditions,Clouds,dailyrainin,SolarRadiationWatts/m^2,SoftwareType,DateUTC
2013-06-22 00:00:00,72.7,68.3,30.17,ENE,78,0.0,0.0,86,0.00,,,0.00,0,Wunderground v.1.15,2013-06-22 04:00:00,
2013-06-22 00:10:00,72.5,68.1,30.16,ENE,78,0.0,0.0,86,0.00,,,0.00,0,Wunderground v.1.15,2013-06-22 04:10:00,
2013-06-22 00:20:00,72.5,68.1,30.16,ENE,78,0.0,0.0,86,0.00,,,0.00,0,Wunderground v.1.15,2013-06-22 04:20:00,
2013-06-22 00:30:00,72.7,68.3,30.17,ENE,78,0.0,0.0,86,0.00,,,0.00,0,Wunderground v.1.15,2013-06-22 04:30:00,
2013-06-22 00:40:00,72.3,67.9,30.17,ENE,78,0.0,0.0,86,0.00,,,0.00,0,Wunderground v.1.15,2013-06-22 04:40:00,
2013-06-22 00:50:00,72.1,67.7,30.17,ENE,78,0.0,0.0,86,0.00,,,0.00,0,Wunderground v.1.15,2013-06-22 04:50:00,
2013-06-22 01:00:00,71.8,67.7,30.16,ENE,78,0.0,0.0,87,0.00,,,0.00,0,Wunderground v.1.15,2013-06-22 05:00:00,
2013-06-22 01:10:00,71.8,68.1,30.16,ENE,78,0.0,0.0,88,0.00,,,0.00,0,Wunderground v.1.15,2013-06-22 05:10:00,
2013-06-22 01:20:00,71.6,68.2,30.16,ENE,78,0.0,0.0,89,0.00,,,0.00,0,Wunderground v.1.15,2013-06-22 05:20:00,
2013-06-22 01:30:00,71.6,68.2,30.16,ENE,78,0.0,0.0,89,0.00,,,0.00,0,Wunderground v.1.15,2013-06-22 05:30:00,
2013-06-22 01:40:00,71.6,68.5,30.15,ENE,78,0.0,0.0,90,0.00,,,0.00,0,Wunderground v.1.15,2013-06-22 05:40:00,
2013-06-22 01:50:00,71.5,68.4,30.15,ENE,78,0.0,0.0,90,0.00,,,0.00,0,Wunderground v.1.15,2013-06-22 05:50:00,
2013-06-22 02:00:00,71.3,68.2,30.15,ENE,78,0.0,0.0,90,0.00,,,0.00,0,Wunderground v.1.15,2013-06-22 06:00:00,
2013-06-22 02:10:00,71.1,68.0,30.14,ENE,78,0.0,0.0,90,0.00,,,0.00,0,Wunderground v.1.15,2013-06-22 06:10:00,
2013-06-22 02:20:00,70.9,67.8,30.14,ENE,78,0.0,0.0,90,0.00,,,0.00,0,Wunderground v.1.15,2013-06-22 06:20:00,
2013-06-22 02:30:00,70.9,67.8,30.14,ENE,78,0.0,0.0,90,0.00,,,0.00,0,Wunderground v.1.15,2013-06-22 06:30:00,
2013-06-22 02:40:00,70.8,67.7,30.13,ENE,78,0.0,0.0,90,0.00,,,0.00,0,Wunderground v.1.15,2013-06-22 06:40:00,
2013-06-22 02:50:00,70.6,67.5,30.13,ENE,78,0.0,0.0,90,0.00,,,0.00,0,Wunderground v.1.15,2013-06-22 06:50:00,
2013-06-22 03:00:00,70.4,67.3,30.13,ENE,78,0.0,0.0,90,0.00,,,0.00,0,Wunderground v.1.15,2013-06-22 07:00:00,
2013-06-22 03:10:00,70.3,67.2,30.13,ENE,78,0.0,0.0,90,0.00,,,0.00,0,Wunderground v.1.15,2013-06-22 07:10:00,
2013-06-22 03:30:00,69.8,67.1,30.13,ENE,78,0.0,0.0,91,0.00,,,0.00,0,Wunderground v.1.15,2013-06-22 07:30:00,
2013-06-22 03:40:00,69.6,66.9,30.13,ENE,78,0.0,0.0,91,0.00,,,0.00,0,Wunderground v.1.15,2013-06-22 07:40:00,
2013-06-22 03:50:00,69.8,67.4,30.13,NNW,339,0.0,0.0,92,0.00,,,0.00,0,Wunderground v.1.15,2013-06-22 07:50:00,
2013-06-22 04:00:00,69.9,67.5,30.13,NNW,338,0.0,0.0,92,0.00,,,0.00,0,Wunderground v.1.15,2013-06-22 08:00:00,
2013-06-22 04:10:00,69.9,67.2,30.13,NNW,338,0.0,1.0,91,0.00,,,0.00,0,Wunderground v.1.15,2013-06-22 08:10:00,
2013-06-22 09:40:00,74.4,64.8,30.19,SSE,147,2.0,3.0,72,0.00,,,0.00,49,Wunderground v.1.15,2013-06-22 13:40:00,
2013-06-22 09:50:00,75.1,65.1,30.19,SSE,161,3.0,4.0,71,0.00,,,0.00,53,Wunderground v.1.15,2013-06-22 13:50:00,
2013-06-22 10:00:00,75.6,63.9,30.20,SSE,164,4.0,4.0,67,0.00,,,0.00,60,Wunderground v.1.15,2013-06-22 14:00:00,
2013-06-22 10:10:00,76.1,64.8,30.20,SE,144,2.0,2.0,68,0.00,,,0.00,58,Wunderground v.1.15,2013-06-22 14:10:00,
2013-06-22 10:20:00,76.5,64.3,30.20,SSE,159,2.0,7.0,66,0.00,,,0.00,62,Wunderground v.1.15,2013-06-22 14:20:00,
2013-06-22 10:30:00,76.8,64.6,30.20,SSE,154,2.0,2.0,66,0.00,,,0.00,65,Wunderground v.1.15,2013-06-22 14:30:00,
2013-06-22 10:40:00,77.4,64.7,30.20,South,181,2.0,2.0,65,0.00,,,0.00,69,Wunderground v.1.15,2013-06-22 14:40:00,
2013-06-22 10:50:00,77.9,65.6,30.20,SSE,168,3.0,3.0,66,0.00,,,0.00,86,Wunderground v.1.15,2013-06-22 14:50:00,
2013-06-22 11:00:00,78.5,64.4,30.20,SSW,192,2.0,3.0,62,0.00,,,0.00,100,Wunderground v.1.15,2013-06-22 15:00:00,
2013-06-22 11:10:00,78.3,63.7,30.20,SSE,167,3.0,9.0,61,0.00,,,0.00,120,Wunderground v.1.15,2013-06-22 15:10:00,
2013-06-22 11:20:00,78.5,64.4,30.20,South,182,1.0,9.0,62,0.00,,,0.00,313,Wunderground v.1.15,2013-06-22 15:20:00,
2013-06-22 11:30:00,79.8,64.7,30.20,South,191,2.0,9.0,60,0.00,,,0.00,214,Wunderground v.1.15,2013-06-22 15:30:00,
2013-06-22 11:40:00,79.8,62.7,30.20,SSE,168,3.0,3.0,56,0.00,,,0.00,181,Wunderground v.1.15,2013-06-22 15:40:00,
2013-06-22 11:50:00,79.4,62.8,30.20,SSE,149,4.0,4.0,57,0.00,,,0.00,172,Wunderground v.1.15,2013-06-22 15:50:00,
2013-06-22 12:00:00,80.1,64.5,30.20,SSW,195,2.0,5.0,59,0.00,,,0.00,185,Wunderground v.1.15,2013-06-22 16:00:00,
2013-06-22 12:10:00,80.9,63.7,30.20,SSE,150,2.0,2.0,56,0.00,,,0.00,283,Wunderground v.1.15,2013-06-22 16:10:00,
2013-06-22 12:20:00,80.3,62.7,30.20,SSW,196,3.0,8.0,55,0.00,,,0.00,279,Wunderground v.1.15,2013-06-22 16:20:00,
2013-06-22 12:30:00,81.4,62.6,30.20,SSE,159,3.0,3.0,53,0.00,,,0.00,246,Wunderground v.1.15,2013-06-22 16:30:00,
2013-06-22 12:40:00,80.7,62.0,30.20,SSE,168,1.0,2.0,53,0.00,,,0.00,218,Wunderground v.1.15,2013-06-22 16:40:00,
2013-06-22 12:50:00,81.2,62.4,30.20,SSE,158,2.0,2.0,53,0.00,,,0.00,250,Wunderground v.1.15,2013-06-22 16:50:00,
2013-06-22 13:00:00,82.6,61.5,30.19,SSE,167,3.0,3.0,49,0.00,,,0.00,993,Wunderground v.1.15,2013-06-22 17:00:00,
2013-06-22 13:10:00,82.8,62.8,30.19,South,177,2.0,2.0,51,0.00,,,0.00,1005,Wunderground v.1.15,2013-06-22 17:10:00,
2013-06-22 13:30:00,82.8,62.3,30.19,WSW,237,1.0,9.0,50,0.00,,,0.00,1046,Wunderground v.1.15,2013-06-22 17:30:00,
2013-06-22 13:40:00,82.4,63.0,30.19,NW,309,1.0,1.0,52,0.00,,,0.00,977,Wunderground v.1.15,2013-06-22 17:40:00,
2013-06-22 13:50:00,82.2,61.1,30.19,SSE,155,2.0,4.0,49,0.00,,,0.00,185,Wunderground v.1.15,2013-06-22 17:50:00,
2013-06-22 14:00:00,82.6,62.1,30.18,SSE,155,1.0,1.0,50,0.00,,,0.00,979,Wunderground v.1.15,2013-06-22 18:00:00,
2013-06-22 14:10:00,83.0,62.4,30.17,SSE,155,0.0,6.0,50,0.00,,,0.00,155,Wunderground v.1.15,2013-06-22 18:10:00,
2013-06-22 14:20:00,82.6,63.2,30.17,NW,317,0.0,6.0,52,0.00,,,0.00,174,Wunderground v.1.15,2013-06-22 18:20:00,
2013-06-22 14:30:00,82.4,63.5,30.16,WSW,248,0.0,6.0,53,0.00,,,0.00,1000,Wunderground v.1.15,2013-06-22 18:30:00,
2013-06-22 14:40:00,83.6,62.4,30.16,NNW,338,1.0,1.0,49,0.00,,,0.00,399,Wunderground v.1.15,2013-06-22 18:40:00,
2013-06-22 14:50:00,83.6,61.2,30.16,North,355,2.0,3.0,47,0.00,,,0.00,204,Wunderground v.1.15,2013-06-22 18:50:00,
2013-06-22 15:00:00,83.6,62.4,30.14,NNE,17,3.0,3.0,49,0.00,,,0.00,898,Wunderground v.1.15,2013-06-22 19:00:00,
2013-06-22 15:10:00,84.3,61.3,30.14,North,355,1.0,6.0,46,0.00,,,0.00,891,Wunderground v.1.15,2013-06-22 19:10:00,
2013-06-22 15:20:00,84.7,62.2,30.14,NNW,346,2.0,2.0,47,0.00,,,0.00,942,Wunderground v.1.15,2013-06-22 19:20:00,
2013-06-22 15:30:00,84.0,61.0,30.13,ENE,67,1.0,6.0,46,0.00,,,0.00,176,Wunderground v.1.15,2013-06-22 19:30:00,
2013-06-22 15:40:00,83.0,61.3,30.13,NNW,348,2.0,2.0,48,0.00,,,0.00,174,Wunderground v.1.15,2013-06-22 19:40:00,
2013-06-22 15:50:00,83.2,63.2,30.13,NNE,26,1.0,2.0,51,0.00,,,0.00,889,Wunderground v.1.15,2013-06-22 19:50:00,
2013-06-22 16:00:00,84.0,61.6,30.12,NNE,26,2.0,2.0,47,0.00,,,0.00,821,Wunderground v.1.15,2013-06-22 20:00:00,
2013-06-22 16:10:00,84.7,62.8,30.11,North,350,2.0,7.0,48,0.00,,,0.00,805,Wunderground v.1.15,2013-06-22 20:10:00,
2013-06-22 16:20:00,85.3,61.6,30.11,NNE,26,2.0,7.0,45,0.00,,,0.00,768,Wunderground v.1.15,2013-06-22 20:20:00,
2013-06-22 16:30:00,85.1,60.7,30.11,NNE,25,1.0,1.0,44,0.00,,,0.00,738,Wunderground v.1.15,2013-06-22 20:30:00,
2013-06-22 16:40:00,85.7,62.5,30.11,NNE,25,1.0,1.0,46,0.00,,,0.00,726,Wunderground v.1.15,2013-06-22 20:40:00,
2013-06-22 16:50:00,85.9,61.5,30.11,NNE,15,1.0,1.0,44,0.00,,,0.00,700,Wunderground v.1.15,2013-06-22 20:50:00,
2013-06-22 17:00:00,85.7,61.3,30.10,NNE,28,2.0,2.0,44,0.00,,,0.00,686,Wunderground v.1.15,2013-06-22 21:00:00,
2013-06-22 17:10:00,85.3,60.9,30.09,NNE,25,2.0,2.0,44,0.00,,,0.00,652,Wunderground v.1.15,2013-06-22 21:10:00,
2013-06-22 17:20:00,85.3,62.2,30.09,NNE,21,2.0,2.0,46,0.00,,,0.00,612,Wunderground v.1.15,2013-06-22 21:20:00,
2013-06-22 17:30:00,85.7,63.8,30.09,NNE,21,0.0,6.0,48,0.00,,,0.00,589,Wunderground v.1.15,2013-06-22 21:30:00,
2013-06-22 17:40:00,85.9,62.7,30.09,ESE,123,1.0,1.0,46,0.00,,,0.00,561,Wunderground v.1.15,2013-06-22 21:40:00,
2013-06-22 17:50:00,85.9,64.5,30.09,NNE,25,1.0,1.0,49,0.00,,,0.00,524,Wunderground v.1.15,2013-06-22 21:50:00,
2013-06-22 18:00:00,85.7,61.3,30.08,NNE,25,0.0,1.0,44,0.00,,,0.00,499,Wunderground v.1.15,2013-06-22 22:00:00,
2013-06-22 18:10:00,86.1,62.9,30.07,South,184,1.0,1.0,46,0.00,,,0.00,475,Wunderground v.1.15,2013-06-22 22:10:00,
2013-06-22 18:20:00,86.3,62.5,30.07,South,172,1.0,6.0,45,0.00,,,0.00,450,Wunderground v.1.15,2013-06-22 22:20:00,
2013-06-22 18:30:00,86.7,64.1,30.06,South,172,1.0,1.0,47,0.00,,,0.00,425,Wunderground v.1.15,2013-06-22 22:30:00,
2013-06-22 18:40:00,85.7,62.5,30.06,South,172,0.0,0.0,46,0.00,,,0.00,366,Wunderground v.1.15,2013-06-22 22:40:00,
2013-06-22 18:50:00,85.5,61.7,30.06,NNE,15,0.0,0.0,45,0.00,,,0.00,330,Wunderground v.1.15,2013-06-22 22:50:00,
2013-06-22 19:00:00,85.7,63.8,30.06,North,5,0.0,0.0,48,0.00,,,0.00,304,Wunderground v.1.15,2013-06-22 23:00:00,
2013-06-22 19:10:00,85.3,62.8,30.06,NNE,13,0.0,4.0,47,0.00,,,0.00,244,Wunderground v.1.15,2013-06-22 23:10:00,
2013-06-22 19:20:00,84.7,64.0,30.06,NNE,13,0.0,4.0,50,0.00,,,0.00,232,Wunderground v.1.15,2013-06-22 23:20:00,
2013-06-22 19:30:00,84.5,63.2,30.06,NNE,13,0.0,4.0,49,0.00,,,0.00,178,Wunderground v.1.15,2013-06-22 23:30:00,
2013-06-22 19:40:00,84.1,61.7,30.06,NNE,13,0.0,0.0,47,0.00,,,0.00,98,Wunderground v.1.15,2013-06-22 23:40:00,
2013-06-22 19:50:00,83.4,62.8,30.06,NNE,13,0.0,0.0,50,0.00,,,0.00,81,Wunderground v.1.15,2013-06-22 23:50:00,
2013-06-22 20:00:00,82.6,62.6,30.06,NNE,13,0.0,0.0,51,0.00,,,0.00,62,Wunderground v.1.15,2013-06-23 00:00:00,
2013-06-22 20:10:00,82.0,63.2,30.06,NNE,13,0.0,4.0,53,0.00,,,0.00,42,Wunderground v.1.15,2013-06-23 00:10:00,
2013-06-22 20:20:00,81.6,63.3,30.06,NNE,13,0.0,4.0,54,0.00,,,0.00,33,Wunderground v.1.15,2013-06-23 00:20:00,
2013-06-22 20:30:00,81.4,64.2,30.06,NNE,13,0.0,4.0,56,0.00,,,0.00,25,Wunderground v.1.15,2013-06-23 00:30:00,
2013-06-22 20:40:00,80.9,63.7,30.06,NNE,13,0.0,0.0,56,0.00,,,0.00,14,Wunderground v.1.15,2013-06-23 00:40:00,
2013-06-22 20:50:00,80.1,63.5,30.06,NNE,13,0.0,0.0,57,0.00,,,0.00,7,Wunderground v.1.15,2013-06-23 00:50:00,
2013-06-22 21:00:00,79.6,63.5,30.07,NNE,13,0.0,0.0,58,0.00,,,0.00,0,Wunderground v.1.15,2013-06-23 01:00:00,
2013-06-22 21:10:00,79.0,63.9,30.08,NNE,13,0.0,2.0,60,0.00,,,0.00,0,Wunderground v.1.15,2013-06-23 01:10:00,
2013-06-22 21:20:00,78.5,64.4,30.08,NNE,13,0.0,2.0,62,0.00,,,0.00,0,Wunderground v.1.15,2013-06-23 01:20:00,
2013-06-22 21:30:00,77.9,63.8,30.08,NNE,13,0.0,2.0,62,0.00,,,0.00,0,Wunderground v.1.15,2013-06-23 01:30:00,
2013-06-22 21:40:00,77.2,64.5,30.09,NNE,13,0.0,0.0,65,0.00,,,0.00,0,Wunderground v.1.15,2013-06-23 01:40:00,
2013-06-22 21:50:00,76.7,64.5,30.09,NNE,13,0.0,0.0,66,0.00,,,0.00,0,Wunderground v.1.15,2013-06-23 01:50:00,
2013-06-22 22:00:00,76.3,64.5,30.09,NNE,13,0.0,0.0,67,0.00,,,0.00,0,Wunderground v.1.15,2013-06-23 02:00:00,
2013-06-22 22:10:00,76.0,65.5,30.10,NNE,13,0.0,0.0,70,0.00,,,0.00,0,Wunderground v.1.15,2013-06-23 02:10:00,
2013-06-22 22:20:00,75.6,65.5,30.10,NNE,13,0.0,0.0,71,0.00,,,0.00,0,Wunderground v.1.15,2013-06-23 02:20:00,
2013-06-22 22:30:00,75.3,65.6,30.11,NNE,13,0.0,0.0,72,0.00,,,0.00,0,Wunderground v.1.15,2013-06-23 02:30:00,